Time;durP1;ratioP1;P1;durP2;ratioP2;P2;SDS_P1;SDS_P2;PMS_P1;PMS_P2;Temp;Humidity;BMP_temperature;BMP_pressure;BME280_temperature;BME280_humidity;BME280_pressure;Samples;Min_cycle;Max_cycle;Signal;HPM_P1;HPM_P2
2021/12/26 00:01:55;;;;;;;6.70;5.13;;;3.30;82.00;;;;;;4963875;28;20979;-45
2021/12/26 00:04:22;;;;;;;6.77;5.83;;;3.30;82.10;;;;;;4962347;28;20458;-45
2021/12/26 00:06:49;;;;;;;9.27;5.90;;;3.30;81.80;;;;;;4973087;28;20584;-45
2021/12/26 00:09:16;;;;;;;8.73;6.10;;;3.30;81.80;;;;;;4967232;28;20468;-45
2021/12/26 00:11:42;;;;;;;6.80;5.73;;;3.30;81.80;;;;;;4964005;28;20468;-46
2021/12/26 00:14:09;;;;;;;7.40;6.67;;;3.30;81.70;;;;;;4963882;28;20463;-46
2021/12/26 00:16:36;;;;;;;6.87;6.13;;;3.30;81.80;;;;;;4962864;28;20477;-45
2021/12/26 00:19:03;;;;;;;6.83;6.20;;;3.30;81.30;;;;;;4964374;28;20477;-45
2021/12/26 00:21:30;;;;;;;11.90;5.73;;;3.20;81.10;;;;;;4963536;28;20577;-46
2021/12/26 00:23:58;;;;;;;6.30;5.70;;;3.20;81.10;;;;;;4967100;28;20478;-45
2021/12/26 00:26:36;;;;;;;5.70;4.77;;;3.20;80.70;;;;;;4966351;28;20628;-45
2021/12/26 00:29:04;;;;;;;5.90;5.30;;;3.20;81.20;;;;;;4977864;28;22186;-46
2021/12/26 00:31:32;;;;;;;7.53;6.47;;;3.20;81.50;;;;;;4964865;28;20462;-45
2021/12/26 00:33:59;;;;;;;6.00;5.40;;;3.20;81.40;;;;;;4964355;28;20520;-45
2021/12/26 00:36:26;;;;;;;9.10;5.60;;;3.20;81.40;;;;;;4965222;28;20474;-45
2021/12/26 00:38:52;;;;;;;7.67;6.30;;;3.20;81.10;;;;;;4961472;28;20471;-45
2021/12/26 00:41:19;;;;;;;7.20;5.30;;;3.20;81.00;;;;;;4962022;28;20561;-44
2021/12/26 00:43:46;;;;;;;9.50;6.13;;;3.20;80.80;;;;;;4967656;28;20462;-45
2021/12/26 00:46:15;;;;;;;7.50;6.13;;;3.20;81.30;;;;;;4965268;28;20493;-44
2021/12/26 00:48:41;;;;;;;6.70;5.60;;;3.20;81.40;;;;;;4963676;28;20537;-45
2021/12/26 00:51:08;;;;;;;10.07;6.37;;;3.20;81.00;;;;;;4961609;28;20991;-45
2021/12/26 00:53:35;;;;;;;7.30;5.50;;;3.20;81.10;;;;;;4966300;28;20470;-44
2021/12/26 00:56:02;;;;;;;10.73;6.13;;;3.10;80.90;;;;;;4963052;28;20752;-45
2021/12/26 00:58:29;;;;;;;6.60;5.77;;;3.20;81.20;;;;;;4963504;28;20465;-45
2021/12/26 01:00:56;;;;;;;6.73;5.57;;;3.20;81.10;;;;;;4951047;28;20527;-45
2021/12/26 01:03:23;;;;;;;9.23;6.20;;;3.20;80.90;;;;;;4963152;28;20990;-45
2021/12/26 01:05:54;;;;;;;7.20;6.07;;;3.10;80.20;;;;;;4963226;28;21505;-45
2021/12/26 01:08:26;;;;;;;8.03;6.70;;;3.20;80.50;;;;;;4964607;28;20545;-45
2021/12/26 01:10:57;;;;;;;6.20;5.60;;;3.10;79.90;;;;;;4960879;28;21036;-45
2021/12/26 01:13:37;;;;;;;8.33;6.47;;;3.10;80.50;;;;;;4976640;28;20446;-44
2021/12/26 01:16:09;;;;;;;6.40;5.50;;;3.10;80.80;;;;;;4961259;28;20952;-45
2021/12/26 01:18:45;;;;;;;5.70;5.10;;;3.10;80.80;;;;;;4967390;28;20968;-45
2021/12/26 01:21:24;;;;;;;8.10;6.37;;;3.10;80.90;;;;;;4965684;28;20484;-45
2021/12/26 01:23:58;;;;;;;8.27;6.30;;;3.10;81.30;;;;;;4965487;28;20473;-46
2021/12/26 01:26:27;;;;;;;7.07;5.77;;;3.10;81.10;;;;;;4961671;28;20940;-45
2021/12/26 01:28:54;;;;;;;7.83;5.10;;;3.10;81.00;;;;;;4964959;28;20545;-45
2021/12/26 01:31:22;;;;;;;9.97;6.97;;;3.10;81.40;;;;;;4961725;28;20577;-45
2021/12/26 01:33:52;;;;;;;10.90;6.03;;;3.20;81.40;;;;;;4962770;28;20552;-45
2021/12/26 01:36:19;;;;;;;11.37;6.50;;;3.10;81.40;;;;;;4961387;28;20566;-45
2021/12/26 01:38:46;;;;;;;9.30;6.80;;;3.20;81.30;;;;;;4962871;28;20461;-45
2021/12/26 01:41:16;;;;;;;9.30;6.63;;;3.20;81.30;;;;;;4965560;28;20558;-44
2021/12/26 01:43:47;;;;;;;8.03;6.50;;;3.10;81.60;;;;;;4964766;28;20458;-45
2021/12/26 01:46:15;;;;;;;9.90;7.10;;;3.10;81.60;;;;;;4956428;28;21887;-44
2021/12/26 01:48:43;;;;;;;7.87;6.60;;;3.20;81.20;;;;;;4960874;28;20553;-45
2021/12/26 01:51:10;;;;;;;7.53;5.87;;;3.20;80.30;;;;;;4956050;28;20549;-45
2021/12/26 01:53:38;;;;;;;7.20;6.17;;;3.10;80.00;;;;;;4960047;28;20828;-45
2021/12/26 01:56:11;;;;;;;9.13;6.53;;;3.10;80.00;;;;;;4962403;28;20542;-45
2021/12/26 01:58:39;;;;;;;8.43;7.20;;;3.10;80.60;;;;;;4962610;28;20466;-44
2021/12/26 02:01:10;;;;;;;11.20;7.30;;;3.20;80.80;;;;;;4963749;28;20571;-45
2021/12/26 02:03:39;;;;;;;8.30;5.40;;;3.10;81.10;;;;;;4958453;28;20474;-45
2021/12/26 02:06:09;;;;;;;8.33;6.33;;;3.10;80.50;;;;;;4960623;28;20563;-45
2021/12/26 02:08:36;;;;;;;9.03;6.47;;;3.10;80.00;;;;;;4975149;28;20473;-45
2021/12/26 02:11:03;;;;;;;7.20;5.93;;;3.00;80.10;;;;;;4957155;28;20590;-45
2021/12/26 02:13:31;;;;;;;8.67;5.60;;;3.00;80.20;;;;;;4960580;28;20462;-45
2021/12/26 02:15:57;;;;;;;7.30;6.00;;;3.10;80.10;;;;;;4957902;28;20483;-46
2021/12/26 02:18:25;;;;;;;8.57;6.60;;;3.10;80.50;;;;;;4960192;28;20492;-45
2021/12/26 02:23:41;;;;;;;7.77;6.70;;;3.10;80.80;;;;;;4964047;28;20482;-45
2021/12/26 02:28:45;;;;;;;9.87;6.80;;;3.00;80.20;;;;;;4960448;28;20984;-45
2021/12/26 02:31:14;;;;;;;9.83;6.27;;;3.00;80.50;;;;;;4956738;28;20476;-46
2021/12/26 02:33:42;;;;;;;8.33;7.00;;;3.10;80.70;;;;;;4959377;28;20501;-45
2021/12/26 02:36:09;;;;;;;12.87;6.80;;;3.10;80.80;;;;;;4960023;28;20889;-45
2021/12/26 02:38:36;;;;;;;8.40;7.20;;;3.10;80.30;;;;;;4959034;28;20702;-45
2021/12/26 02:41:04;;;;;;;9.20;6.40;;;3.00;80.60;;;;;;4976901;28;20462;-45
2021/12/26 02:43:32;;;;;;;11.77;7.40;;;3.10;81.10;;;;;;4957624;28;20498;-45
2021/12/26 02:46:05;;;;;;;9.17;7.00;;;3.10;81.40;;;;;;4962509;28;20470;-44
2021/12/26 02:48:37;;;;;;;8.70;6.40;;;3.10;81.60;;;;;;4964144;28;20880;-45
2021/12/26 02:51:04;;;;;;;10.67;7.40;;;3.10;81.50;;;;;;4963088;28;20472;-45
2021/12/26 02:53:32;;;;;;;8.53;6.00;;;3.10;81.70;;;;;;4963780;28;20470;-44
2021/12/26 02:55:59;;;;;;;8.30;6.80;;;3.10;81.60;;;;;;4966121;28;20827;-44
2021/12/26 02:58:27;;;;;;;8.40;6.70;;;3.10;81.60;;;;;;4962778;28;20501;-44
2021/12/26 03:01:05;;;;;;;11.53;7.30;;;3.10;81.30;;;;;;4967155;28;20667;-45
2021/12/26 03:03:32;;;;;;;7.13;6.30;;;3.10;81.40;;;;;;4962484;28;20462;-45
2021/12/26 03:06:05;;;;;;;10.87;7.83;;;3.10;81.10;;;;;;4948346;28;20459;-45
2021/12/26 03:08:32;;;;;;;10.73;6.63;;;3.10;81.40;;;;;;4964210;28;20466;-44
2021/12/26 03:10:59;;;;;;;9.57;7.23;;;3.20;81.50;;;;;;4963891;28;21000;-46
2021/12/26 03:13:27;;;;;;;10.23;7.27;;;3.20;81.50;;;;;;4965087;28;20466;-45
2021/12/26 03:15:55;;;;;;;9.37;7.30;;;3.20;81.50;;;;;;4967926;28;20553;-44
2021/12/26 03:18:22;;;;;;;9.70;7.47;;;3.20;81.80;;;;;;4964367;28;20463;-45
2021/12/26 03:20:51;;;;;;;11.83;6.97;;;3.30;81.70;;;;;;4964370;28;20481;-44
2021/12/26 03:23:21;;;;;;;12.13;7.07;;;3.20;81.70;;;;;;4981824;28;20482;-45
2021/12/26 03:25:49;;;;;;;9.97;8.03;;;3.10;81.70;;;;;;4964403;28;20876;-46
2021/12/26 03:28:17;;;;;;;9.80;7.30;;;3.10;81.60;;;;;;4966800;28;20496;-46
2021/12/26 03:30:45;;;;;;;12.30;8.20;;;3.10;81.10;;;;;;4964038;28;20889;-45
2021/12/26 03:33:13;;;;;;;10.33;7.37;;;3.20;81.20;;;;;;4965473;28;20469;-46
2021/12/26 03:35:41;;;;;;;7.17;6.23;;;3.20;81.20;;;;;;4974258;28;20472;-45
2021/12/26 03:38:09;;;;;;;9.87;8.73;;;3.20;81.30;;;;;;4960489;28;20458;-45
2021/12/26 03:40:37;;;;;;;8.50;6.57;;;3.20;81.30;;;;;;4968075;28;20505;-45
2021/12/26 03:43:05;;;;;;;10.30;7.50;;;3.20;80.90;;;;;;4964911;28;20478;-45
2021/12/26 03:45:43;;;;;;;9.97;7.00;;;3.20;81.00;;;;;;4963376;28;20470;-45
2021/12/26 03:48:12;;;;;;;11.27;6.90;;;3.20;81.00;;;;;;4965554;28;20505;-46
2021/12/26 03:50:40;;;;;;;8.77;6.63;;;3.30;80.90;;;;;;4957697;28;20480;-46
2021/12/26 03:53:09;;;;;;;8.87;7.00;;;3.30;80.70;;;;;;4967758;28;20521;-46
2021/12/26 03:55:36;;;;;;;11.30;6.90;;;3.20;80.70;;;;;;4963533;28;20459;-46
2021/12/26 03:58:04;;;;;;;12.60;8.50;;;3.20;80.10;;;;;;4964795;28;20464;-46
2021/12/26 04:00:31;;;;;;;10.27;7.77;;;3.20;80.30;;;;;;4967652;28;20458;-46
2021/12/26 04:02:58;;;;;;;11.07;7.63;;;3.20;80.20;;;;;;4964230;28;20477;-46
2021/12/26 04:05:25;;;;;;;8.37;6.20;;;3.20;80.80;;;;;;4963410;28;20983;-46
2021/12/26 04:07:52;;;;;;;9.87;7.40;;;3.20;80.60;;;;;;4962455;28;20494;-46
2021/12/26 04:10:21;;;;;;;11.40;8.13;;;3.20;80.80;;;;;;4962189;28;20469;-46
2021/12/26 04:12:50;;;;;;;10.33;6.80;;;3.20;80.30;;;;;;4950196;28;20450;-45
2021/12/26 04:15:20;;;;;;;9.30;8.33;;;3.20;80.50;;;;;;4962589;28;20599;-46
2021/12/26 04:17:48;;;;;;;11.57;7.27;;;3.20;80.30;;;;;;4960886;28;20466;-46
2021/12/26 04:20:15;;;;;;;9.53;7.70;;;3.20;80.30;;;;;;4944339;28;20872;-46
2021/12/26 04:22:42;;;;;;;9.10;7.20;;;3.20;80.10;;;;;;4963313;28;20557;-46
2021/12/26 04:25:10;;;;;;;11.07;7.93;;;3.20;79.90;;;;;;4961079;28;22553;-46
2021/12/26 04:27:37;;;;;;;10.17;7.03;;;3.20;80.00;;;;;;4960724;28;20498;-46
2021/12/26 04:30:07;;;;;;;10.53;7.40;;;3.20;80.70;;;;;;4960101;28;20550;-46
2021/12/26 04:32:33;;;;;;;10.37;7.53;;;3.20;81.00;;;;;;4959261;28;20478;-46
2021/12/26 04:35:00;;;;;;;11.67;8.50;;;3.20;80.90;;;;;;4968985;28;20470;-46
2021/12/26 04:37:27;;;;;;;9.77;6.83;;;3.30;80.30;;;;;;4980246;28;20486;-46
2021/12/26 04:39:54;;;;;;;10.13;7.07;;;3.20;80.70;;;;;;4962967;28;20467;-45
2021/12/26 04:42:22;;;;;;;13.00;8.20;;;3.30;80.90;;;;;;4963569;28;20907;-47
2021/12/26 04:44:51;;;;;;;10.73;7.60;;;3.30;80.50;;;;;;4961258;28;20605;-45
2021/12/26 04:47:18;;;;;;;13.63;8.53;;;3.20;80.30;;;;;;4960897;28;21026;-46
2021/12/26 04:49:45;;;;;;;12.60;8.70;;;3.20;80.60;;;;;;4959556;28;20852;-46
2021/12/26 04:52:12;;;;;;;9.97;7.67;;;3.20;80.40;;;;;;4961788;28;20566;-46
2021/12/26 04:54:39;;;;;;;8.90;7.27;;;3.10;79.80;;;;;;4965169;28;20459;-46
2021/12/26 04:57:06;;;;;;;9.90;7.10;;;3.10;79.80;;;;;;4961241;28;20463;-46
2021/12/26 04:59:33;;;;;;;10.27;6.97;;;3.10;79.60;;;;;;4965056;28;20450;-46
2021/12/26 05:02:00;;;;;;;11.10;7.33;;;3.10;79.80;;;;;;4961815;28;20835;-46
2021/12/26 05:04:27;;;;;;;11.70;8.90;;;3.10;79.90;;;;;;4961900;28;20470;-46
2021/12/26 05:06:54;;;;;;;10.30;7.13;;;3.10;80.00;;;;;;4959481;28;20494;-46
2021/12/26 05:09:21;;;;;;;8.97;6.80;;;3.10;80.00;;;;;;4961058;28;20586;-46
2021/12/26 05:11:47;;;;;;;10.17;8.40;;;3.10;80.80;;;;;;4962690;28;20480;-46
2021/12/26 05:14:14;;;;;;;9.53;7.77;;;3.10;80.60;;;;;;4961135;28;21502;-46
2021/12/26 05:16:42;;;;;;;10.50;7.97;;;3.10;79.70;;;;;;4961771;28;20462;-46
2021/12/26 05:19:09;;;;;;;9.73;7.10;;;3.00;79.70;;;;;;4962213;28;20959;-46
2021/12/26 05:21:35;;;;;;;9.90;7.20;;;3.00;80.00;;;;;;4960967;28;22226;-46
2021/12/26 05:24:02;;;;;;;9.97;7.50;;;3.10;80.30;;;;;;4960753;28;20461;-46
2021/12/26 05:26:29;;;;;;;9.30;7.10;;;3.10;80.00;;;;;;4963559;28;20473;-46
2021/12/26 05:28:56;;;;;;;11.40;8.00;;;3.00;80.10;;;;;;4963784;28;21182;-45
2021/12/26 05:31:23;;;;;;;12.47;8.07;;;3.10;80.00;;;;;;4959530;28;20461;-46
2021/12/26 05:33:50;;;;;;;11.17;8.27;;;3.10;80.00;;;;;;4962424;28;21015;-45
2021/12/26 05:36:16;;;;;;;11.77;8.37;;;3.10;80.20;;;;;;4946380;28;20472;-46
2021/12/26 05:38:43;;;;;;;12.37;8.47;;;3.00;80.20;;;;;;4961272;28;20470;-46
2021/12/26 05:41:10;;;;;;;11.57;8.43;;;3.00;80.00;;;;;;4978650;28;20466;-46
2021/12/26 05:43:37;;;;;;;10.77;7.70;;;3.00;80.30;;;;;;4960305;28;21322;-46
2021/12/26 05:46:04;;;;;;;12.37;7.93;;;3.00;80.50;;;;;;4961857;28;20469;-46
2021/12/26 05:48:31;;;;;;;12.20;9.50;;;3.00;80.00;;;;;;4962481;28;20486;-46
2021/12/26 05:50:57;;;;;;;8.87;7.97;;;3.10;80.10;;;;;;4964386;28;20470;-46
2021/12/26 05:53:24;;;;;;;8.50;7.20;;;3.00;80.00;;;;;;4962767;28;20470;-47
2021/12/26 05:55:51;;;;;;;10.90;7.37;;;3.00;79.80;;;;;;4960806;28;20848;-46
2021/12/26 05:58:18;;;;;;;9.63;7.50;;;3.00;80.00;;;;;;4962027;28;20470;-46
2021/12/26 06:00:45;;;;;;;12.10;7.80;;;3.00;80.20;;;;;;4960824;28;21059;-46
2021/12/26 06:03:11;;;;;;;10.40;7.80;;;3.00;80.00;;;;;;4961673;28;20473;-45
2021/12/26 06:05:38;;;;;;;13.43;8.17;;;3.00;79.70;;;;;;4961439;28;20482;-46
2021/12/26 06:08:05;;;;;;;9.70;8.30;;;2.90;79.70;;;;;;4962342;28;21037;-46
2021/12/26 06:10:32;;;;;;;12.60;8.40;;;2.90;79.80;;;;;;4960496;28;20466;-46
2021/12/26 06:12:59;;;;;;;9.57;7.80;;;2.80;80.00;;;;;;4957679;28;20822;-45
2021/12/26 06:15:25;;;;;;;11.00;8.00;;;2.90;80.30;;;;;;4961121;28;20470;-47
2021/12/26 06:17:52;;;;;;;11.70;8.87;;;2.80;80.20;;;;;;4966465;28;20954;-45
2021/12/26 06:20:19;;;;;;;10.47;7.80;;;2.80;80.40;;;;;;4958557;28;20493;-46
2021/12/26 06:22:46;;;;;;;10.50;7.67;;;2.90;80.40;;;;;;4952326;28;20971;-46
2021/12/26 06:25:15;;;;;;;13.03;7.47;;;2.90;80.40;;;;;;4958522;28;20939;-47
2021/12/26 06:27:42;;;;;;;12.07;8.50;;;2.90;80.60;;;;;;4964937;28;20490;-47
2021/12/26 06:30:11;;;;;;;12.37;8.60;;;2.90;80.50;;;;;;4978139;28;20509;-47
2021/12/26 06:32:38;;;;;;;12.53;7.90;;;2.90;80.30;;;;;;4955810;28;20821;-46
2021/12/26 06:35:06;;;;;;;11.33;7.87;;;2.80;80.00;;;;;;4962734;28;20480;-47
2021/12/26 06:37:32;;;;;;;13.03;9.60;;;2.80;80.10;;;;;;4973494;28;20474;-47
2021/12/26 06:40:00;;;;;;;13.07;8.50;;;2.80;80.60;;;;;;4962969;28;20461;-45
2021/12/26 06:42:30;;;;;;;9.17;7.50;;;2.90;81.10;;;;;;4960739;28;20478;-46
2021/12/26 06:44:57;;;;;;;13.23;7.57;;;2.90;81.70;;;;;;4958212;28;20465;-46
2021/12/26 06:47:25;;;;;;;12.23;8.47;;;2.90;81.10;;;;;;4962188;28;21084;-46
2021/12/26 06:49:51;;;;;;;11.70;7.23;;;2.90;81.10;;;;;;4962838;28;20558;-47
2021/12/26 06:52:19;;;;;;;11.13;7.87;;;2.90;81.10;;;;;;4960687;28;21013;-47
2021/12/26 06:54:46;;;;;;;10.70;8.57;;;2.90;80.90;;;;;;4957433;28;20565;-47
2021/12/26 06:57:13;;;;;;;13.23;8.60;;;2.90;80.70;;;;;;4959437;28;20489;-46
2021/12/26 06:59:40;;;;;;;13.87;8.80;;;2.80;80.60;;;;;;4957763;28;20473;-46
2021/12/26 07:02:07;;;;;;;10.07;7.27;;;2.80;80.50;;;;;;4961750;28;20483;-46
2021/12/26 07:04:34;;;;;;;11.77;8.80;;;2.80;80.50;;;;;;4963358;28;20513;-46
2021/12/26 07:07:00;;;;;;;13.47;9.07;;;2.90;80.70;;;;;;4958701;28;20964;-47
2021/12/26 07:09:27;;;;;;;11.73;8.00;;;2.90;80.70;;;;;;4957238;28;20470;-46
2021/12/26 07:11:54;;;;;;;9.90;7.17;;;2.90;80.80;;;;;;4965980;28;20564;-46
2021/12/26 07:14:21;;;;;;;12.20;9.30;;;2.90;80.90;;;;;;4957068;28;20865;-46
2021/12/26 07:16:48;;;;;;;14.20;9.70;;;2.90;81.10;;;;;;4961654;28;20493;-46
2021/12/26 07:19:15;;;;;;;10.60;7.53;;;3.00;81.10;;;;;;4956952;28;20466;-46
2021/12/26 07:21:42;;;;;;;9.83;8.47;;;2.90;80.60;;;;;;4960402;28;20500;-46
2021/12/26 07:24:08;;;;;;;13.93;8.60;;;2.90;80.80;;;;;;4960478;28;20467;-46
2021/12/26 07:26:36;;;;;;;8.80;7.47;;;2.90;80.90;;;;;;4968654;28;20478;-46
2021/12/26 07:29:03;;;;;;;12.53;8.60;;;2.90;81.10;;;;;;4960236;28;20598;-46
2021/12/26 07:31:30;;;;;;;11.30;8.67;;;2.90;81.20;;;;;;4961522;28;20493;-46
2021/12/26 07:33:57;;;;;;;12.30;8.90;;;3.00;81.00;;;;;;4961084;28;20466;-46
2021/12/26 07:36:37;;;;;;;10.40;8.10;;;3.00;81.00;;;;;;4962070;28;20867;-46
2021/12/26 07:39:04;;;;;;;12.07;8.97;;;2.90;80.80;;;;;;4966207;28;20469;-46
2021/12/26 07:41:35;;;;;;;12.17;8.40;;;2.90;80.50;;;;;;4961553;28;20469;-46
2021/12/26 07:44:02;;;;;;;12.33;8.60;;;2.90;80.60;;;;;;4963837;28;20466;-45
2021/12/26 07:46:29;;;;;;;13.97;7.80;;;2.90;80.40;;;;;;4961372;28;20476;-45
2021/12/26 07:48:56;;;;;;;11.70;7.70;;;2.90;80.50;;;;;;4963222;28;20498;-46
2021/12/26 07:51:23;;;;;;;9.90;6.93;;;2.90;80.60;;;;;;4960448;28;20466;-47
2021/12/26 07:53:51;;;;;;;13.13;8.30;;;2.90;81.00;;;;;;4961965;28;20840;-46
2021/12/26 07:56:19;;;;;;;11.50;8.40;;;3.00;81.30;;;;;;4963637;28;20463;-46
2021/12/26 07:58:45;;;;;;;10.30;7.73;;;3.10;81.30;;;;;;4964018;28;20467;-46
2021/12/26 08:01:12;;;;;;;11.33;8.53;;;3.00;80.70;;;;;;4966709;28;20489;-46
2021/12/26 08:03:39;;;;;;;15.40;9.57;;;3.00;80.60;;;;;;4963647;28;20958;-46
2021/12/26 08:06:07;;;;;;;11.20;7.70;;;3.00;80.70;;;;;;4973738;28;20996;-46
2021/12/26 08:08:35;;;;;;;11.70;8.90;;;3.00;81.10;;;;;;4959127;28;21847;-45
2021/12/26 08:11:02;;;;;;;14.50;10.47;;;2.90;81.20;;;;;;4965285;28;20705;-46
2021/12/26 08:13:33;;;;;;;12.70;9.00;;;2.90;81.50;;;;;;4963458;28;21106;-46
2021/12/26 08:15:59;;;;;;;11.60;8.00;;;3.00;82.20;;;;;;4960817;28;20471;-46
2021/12/26 08:18:26;;;;;;;11.70;8.20;;;3.00;82.40;;;;;;4965772;28;20492;-46
2021/12/26 08:20:53;;;;;;;10.97;8.30;;;3.00;82.40;;;;;;4962103;28;21003;-46
2021/12/26 08:23:20;;;;;;;11.40;8.13;;;3.00;82.30;;;;;;4968138;28;20889;-46
2021/12/26 08:25:47;;;;;;;11.27;8.93;;;3.00;81.80;;;;;;4966497;28;20802;-46
2021/12/26 08:28:14;;;;;;;13.60;9.50;;;3.00;81.90;;;;;;4967210;28;20495;-46
2021/12/26 08:30:43;;;;;;;10.00;7.53;;;3.00;82.00;;;;;;4965561;28;20896;-46
2021/12/26 08:33:10;;;;;;;11.83;8.50;;;3.00;81.90;;;;;;4965968;28;20474;-46
2021/12/26 08:35:38;;;;;;;11.10;9.33;;;3.00;81.90;;;;;;4961740;28;20462;-46
2021/12/26 08:38:06;;;;;;;12.53;8.50;;;3.00;81.80;;;;;;4944959;28;20840;-46
2021/12/26 08:40:32;;;;;;;14.60;8.77;;;3.00;82.20;;;;;;4975121;28;20466;-45
2021/12/26 08:42:59;;;;;;;14.67;9.00;;;3.10;82.30;;;;;;4962231;28;20469;-47
2021/12/26 08:45:26;;;;;;;13.23;8.57;;;3.10;82.90;;;;;;4963049;28;20482;-46
2021/12/26 08:47:55;;;;;;;12.53;8.07;;;3.10;83.20;;;;;;4967650;28;20486;-46
2021/12/26 08:50:25;;;;;;;11.73;8.53;;;3.10;82.50;;;;;;4962106;28;20589;-46
2021/12/26 08:52:53;;;;;;;11.37;8.30;;;3.10;82.20;;;;;;4968058;28;20454;-46
2021/12/26 08:55:21;;;;;;;11.33;8.53;;;3.00;82.40;;;;;;4967207;28;20472;-46
2021/12/26 08:57:48;;;;;;;12.47;8.97;;;3.00;82.40;;;;;;4963100;28;20470;-46
2021/12/26 09:00:15;;;;;;;13.23;9.00;;;3.00;82.30;;;;;;4964722;28;20451;-46
2021/12/26 09:02:42;;;;;;;12.50;8.77;;;3.00;82.20;;;;;;4958389;28;20828;-46
2021/12/26 09:05:10;;;;;;;13.40;8.77;;;3.00;82.30;;;;;;4963136;28;20470;-45
2021/12/26 09:07:38;;;;;;;15.30;9.07;;;3.00;82.40;;;;;;4961536;28;20470;-46
2021/12/26 09:10:06;;;;;;;11.60;8.47;;;3.00;82.40;;;;;;4976874;28;20462;-46
2021/12/26 09:12:34;;;;;;;19.30;12.27;;;2.90;82.70;;;;;;4963898;28;20469;-46
2021/12/26 09:15:01;;;;;;;20.30;15.23;;;3.00;82.90;;;;;;4960207;28;20474;-46
2021/12/26 09:17:27;;;;;;;17.93;13.40;;;2.90;83.00;;;;;;4962049;28;20443;-46
2021/12/26 09:19:54;;;;;;;12.30;10.20;;;3.00;83.10;;;;;;4962767;28;20478;-46
2021/12/26 09:22:21;;;;;;;12.90;10.50;;;3.00;83.20;;;;;;4961847;28;20474;-46
2021/12/26 09:24:48;;;;;;;15.10;10.47;;;3.10;83.20;;;;;;4976387;28;20550;-46
2021/12/26 09:27:15;;;;;;;12.77;8.70;;;3.10;83.20;;;;;;4963072;28;20474;-45
2021/12/26 09:29:42;;;;;;;10.47;8.13;;;3.10;82.80;;;;;;4969800;28;21000;-46
2021/12/26 09:32:09;;;;;;;11.53;9.33;;;3.10;82.80;;;;;;4965237;28;20828;-45
2021/12/26 09:34:36;;;;;;;14.90;10.00;;;3.10;82.80;;;;;;4975933;28;20478;-46
2021/12/26 09:37:06;;;;;;;11.50;9.33;;;3.10;82.60;;;;;;4958943;28;20454;-46
2021/12/26 09:39:34;;;;;;;11.67;8.33;;;3.10;82.70;;;;;;4959075;28;20898;-45
2021/12/26 09:42:00;;;;;;;11.83;8.97;;;3.10;82.40;;;;;;4946937;28;20553;-46
2021/12/26 09:44:27;;;;;;;14.03;9.70;;;3.00;82.60;;;;;;4965921;28;20545;-45
2021/12/26 09:46:54;;;;;;;14.97;10.80;;;3.00;82.60;;;;;;4962284;28;20462;-46
2021/12/26 09:49:21;;;;;;;12.90;10.00;;;3.00;82.70;;;;;;4962423;28;20498;-45
2021/12/26 09:51:52;;;;;;;19.10;12.87;;;3.00;82.90;;;;;;4964082;28;20461;-46
2021/12/26 09:54:20;;;;;;;28.10;15.60;;;3.00;83.20;;;;;;4966383;28;20554;-46
2021/12/26 09:56:46;;;;;;;28.80;19.87;;;3.10;83.30;;;;;;4976166;28;20458;-46
2021/12/26 09:59:16;;;;;;;22.43;15.80;;;3.10;83.20;;;;;;4963383;28;20836;-46
2021/12/26 10:01:47;;;;;;;21.03;12.83;;;3.10;83.30;;;;;;4960809;28;20469;-46
2021/12/26 10:04:35;;;;;;;13.33;9.53;;;3.10;83.30;;;;;;4960714;28;20594;-46
2021/12/26 10:07:11;;;;;;;15.20;10.47;;;3.10;83.50;;;;;;4965484;28;20455;-46
2021/12/26 10:09:41;;;;;;;16.60;10.57;;;3.10;83.80;;;;;;4960099;28;20493;-45
2021/12/26 10:12:08;;;;;;;13.10;9.10;;;3.10;84.00;;;;;;4962249;28;20566;-45
2021/12/26 10:14:38;;;;;;;12.97;9.20;;;3.10;84.30;;;;;;4958585;28;20466;-45
2021/12/26 10:17:09;;;;;;;14.67;9.43;;;3.20;84.60;;;;;;4957038;28;20471;-45
2021/12/26 10:19:41;;;;;;;13.50;9.57;;;3.30;84.80;;;;;;4962416;28;20458;-45
2021/12/26 10:22:10;;;;;;;13.73;9.50;;;3.30;84.90;;;;;;4959302;28;20494;-45
2021/12/26 10:24:40;;;;;;;16.47;11.07;;;3.30;84.80;;;;;;4960255;28;20466;-45
2021/12/26 10:27:14;;;;;;;14.17;8.90;;;3.30;84.70;;;;;;4956004;28;20890;-46
2021/12/26 10:29:48;;;;;;;12.83;9.57;;;3.30;84.80;;;;;;4962478;28;20498;-45
2021/12/26 10:32:31;;;;;;;13.20;8.23;;;3.30;85.20;;;;;;4977038;28;20466;-45
2021/12/26 10:35:07;;;;;;;14.73;9.23;;;3.30;85.10;;;;;;4950273;28;20452;-45
2021/12/26 10:37:48;;;;;;;14.50;8.60;;;3.30;85.10;;;;;;4961654;28;21009;-45
2021/12/26 10:40:25;;;;;;;12.60;9.50;;;3.30;85.30;;;;;;4963099;28;20533;-45
2021/12/26 10:42:57;;;;;;;15.50;10.13;;;3.30;85.00;;;;;;4963357;28;20831;-45
2021/12/26 10:45:27;;;;;;;16.10;10.40;;;3.20;85.20;;;;;;4994091;28;20927;-46
2021/12/26 10:47:57;;;;;;;15.00;10.30;;;3.20;85.30;;;;;;4962102;28;20466;-46
2021/12/26 10:50:28;;;;;;;14.97;9.20;;;3.20;85.50;;;;;;4963060;28;20458;-46
2021/12/26 10:53:00;;;;;;;15.60;9.43;;;3.20;85.50;;;;;;4958115;28;20473;-46
2021/12/26 10:55:30;;;;;;;13.13;8.70;;;3.20;85.50;;;;;;4961439;28;20473;-45
2021/12/26 10:57:59;;;;;;;15.70;9.67;;;3.30;85.60;;;;;;4942266;28;20466;-45
2021/12/26 11:00:38;;;;;;;15.40;10.50;;;3.30;85.60;;;;;;4975428;28;20496;-46
2021/12/26 11:03:08;;;;;;;10.97;8.77;;;3.30;85.70;;;;;;4959865;28;20823;-46
2021/12/26 11:05:46;;;;;;;14.00;9.93;;;3.30;85.80;;;;;;4961519;28;20478;-46
2021/12/26 11:08:24;;;;;;;16.27;10.70;;;3.30;86.00;;;;;;4961090;28;20473;-45
2021/12/26 11:10:53;;;;;;;15.60;10.47;;;3.20;86.00;;;;;;4966619;28;20472;-46
2021/12/26 11:13:23;;;;;;;15.50;11.13;;;3.30;86.10;;;;;;4966370;28;20458;-46
2021/12/26 11:16:00;;;;;;;12.67;10.57;;;3.40;86.30;;;;;;4965240;28;20970;-46
2021/12/26 11:18:27;;;;;;;16.63;11.50;;;3.30;86.20;;;;;;4966856;28;20500;-46
2021/12/26 11:21:06;;;;;;;19.27;11.40;;;3.40;86.20;;;;;;4962958;28;20553;-46
2021/12/26 11:23:35;;;;;;;19.10;11.47;;;3.30;86.00;;;;;;4967401;28;20473;-46
2021/12/26 11:26:07;;;;;;;15.80;10.77;;;3.30;86.20;;;;;;4979288;28;20488;-46
2021/12/26 11:28:39;;;;;;;16.80;11.40;;;3.30;86.40;;;;;;4965926;28;20495;-46
2021/12/26 11:31:12;;;;;;;19.10;11.10;;;3.30;86.60;;;;;;4966318;28;20472;-46
2021/12/26 11:33:40;;;;;;;14.20;9.03;;;3.30;86.70;;;;;;4964891;28;20573;-46
2021/12/26 11:36:11;;;;;;;20.40;10.50;;;3.40;86.60;;;;;;4967640;28;20551;-46
2021/12/26 11:38:39;;;;;;;17.93;10.80;;;3.40;86.40;;;;;;4965413;28;20477;-46
2021/12/26 11:41:08;;;;;;;18.20;10.93;;;3.40;86.30;;;;;;4979198;28;20466;-46
2021/12/26 11:43:44;;;;;;;17.47;10.77;;;3.40;86.20;;;;;;4966646;28;20458;-45
2021/12/26 11:46:27;;;;;;;14.30;10.30;;;3.40;86.10;;;;;;4964625;28;20468;-45
2021/12/26 11:48:55;;;;;;;15.53;10.20;;;3.40;86.10;;;;;;4961266;28;20871;-46
2021/12/26 11:51:50;;;;;;;14.73;9.67;;;3.40;86.00;;;;;;4982338;28;20451;-46
2021/12/26 11:54:47;;;;;;;14.47;9.97;;;3.40;86.20;;;;;;4964554;28;20548;-46
2021/12/26 11:57:32;;;;;;;15.33;9.50;;;3.50;86.40;;;;;;4962687;28;20999;-46
2021/12/26 12:00:27;;;;;;;16.10;10.00;;;3.40;86.50;;;;;;4964519;28;20504;-46
2021/12/26 12:02:57;;;;;;;19.13;12.80;;;3.40;86.50;;;;;;4961076;28;20465;-46
2021/12/26 12:05:38;;;;;;;26.60;15.97;;;3.40;86.30;;;;;;4961412;28;20473;-45
2021/12/26 12:08:24;;;;;;;40.17;21.13;;;3.40;86.40;;;;;;4964470;28;20552;-46
2021/12/26 12:10:57;;;;;;;23.93;14.60;;;3.30;86.40;;;;;;4967838;28;20462;-46
2021/12/26 12:13:27;;;;;;;37.33;19.97;;;3.40;86.60;;;;;;4968421;28;20916;-46
2021/12/26 12:15:58;;;;;;;26.43;15.27;;;3.30;86.60;;;;;;4964870;28;20459;-46
2021/12/26 12:18:26;;;;;;;30.50;18.67;;;3.40;86.60;;;;;;4963014;28;20465;-46
2021/12/26 12:21:11;;;;;;;31.93;18.73;;;3.40;86.50;;;;;;4964431;28;20816;-46
2021/12/26 12:24:09;;;;;;;28.90;15.43;;;3.40;86.40;;;;;;4969954;28;20482;-46
2021/12/26 12:26:48;;;;;;;42.33;21.77;;;3.40;86.60;;;;;;4964001;28;20464;-46
2021/12/26 12:29:48;;;;;;;24.07;16.30;;;3.40;86.60;;;;;;4965083;28;20492;-46
2021/12/26 12:32:23;;;;;;;18.33;11.10;;;3.40;86.70;;;;;;4963831;28;20455;-46
2021/12/26 12:34:57;;;;;;;18.67;12.70;;;3.50;86.70;;;;;;4962768;28;20459;-46
2021/12/26 12:37:27;;;;;;;17.10;11.60;;;3.50;86.60;;;;;;4962801;28;20461;-45
2021/12/26 12:40:27;;;;;;;14.27;10.30;;;3.50;86.50;;;;;;4958509;28;20481;-46
2021/12/26 12:43:06;;;;;;;16.63;12.13;;;3.50;86.50;;;;;;4955224;28;20990;-46
2021/12/26 12:45:53;;;;;;;16.27;11.57;;;3.60;86.40;;;;;;4962369;28;20477;-46
2021/12/26 12:48:23;;;;;;;14.87;10.97;;;3.50;86.30;;;;;;4956352;28;20474;-45
2021/12/26 12:51:03;;;;;;;14.77;10.77;;;3.50;86.70;;;;;;4963560;28;20842;-46
2021/12/26 12:53:38;;;;;;;16.70;11.13;;;3.50;86.70;;;;;;4967144;28;20466;-45
2021/12/26 12:56:09;;;;;;;15.47;11.70;;;3.50;86.80;;;;;;4964339;28;20674;-45
2021/12/26 12:58:36;;;;;;;19.60;12.20;;;3.50;86.80;;;;;;4966160;28;20834;-46
2021/12/26 13:01:06;;;;;;;17.33;12.00;;;3.50;86.80;;;;;;4974878;28;20466;-46
2021/12/26 13:03:36;;;;;;;19.57;12.60;;;3.50;86.90;;;;;;4959056;28;20461;-45
2021/12/26 13:06:09;;;;;;;18.27;12.03;;;3.50;87.00;;;;;;4963444;28;20470;-45